createdAt,value
2023-04-20T00:01:36.167Z,7.80
2023-04-20T00:11:41.558Z,5.38
2023-04-20T00:16:45.971Z,5.60
2023-04-20T00:26:51.724Z,5.30
2023-04-20T00:31:57.039Z,5.47
2023-04-20T00:36:59.803Z,6.53
2023-04-20T00:42:06.459Z,6.28
2023-04-20T00:47:12.804Z,5.85
2023-04-20T00:52:15.567Z,4.63
2023-04-20T00:57:20.008Z,4.55
2023-04-20T01:02:24.132Z,5.78
2023-04-20T01:07:27.140Z,6.13
2023-04-20T01:12:29.833Z,7.10
2023-04-20T01:17:34.847Z,5.28
2023-04-20T01:22:44.850Z,5.35
2023-04-20T01:27:47.539Z,6.13
2023-04-20T01:32:50.870Z,5.30
2023-04-20T01:37:55.418Z,6.00
2023-04-20T01:42:58.829Z,5.85
2023-04-20T01:48:02.388Z,3.85
2023-04-20T01:53:06.721Z,5.75
2023-04-20T01:58:09.564Z,3.38
2023-04-20T02:03:12.280Z,6.35
2023-04-20T02:08:17.327Z,5.25
2023-04-20T02:13:20.505Z,5.00
2023-04-20T02:18:26.144Z,3.97
2023-04-20T02:23:31.013Z,3.55
2023-04-20T02:28:34.356Z,4.00
2023-04-20T02:33:37.302Z,3.63
2023-04-20T02:38:41.420Z,2.80
2023-04-20T02:43:44.715Z,2.47
2023-04-20T02:48:48.493Z,2.30
2023-04-20T02:53:53.296Z,2.08
2023-04-20T02:58:56.405Z,2.72
2023-04-20T03:03:59.981Z,3.25
2023-04-20T03:09:04.376Z,3.33
2023-04-20T03:19:09.943Z,2.95
2023-04-20T03:24:13.897Z,3.88
2023-04-20T03:29:16.934Z,4.07
2023-04-20T03:34:22.128Z,3.97
2023-04-20T03:39:26.996Z,3.53
2023-04-20T03:44:30.276Z,4.22
2023-04-20T03:49:32.782Z,4.63
2023-04-20T03:54:37.263Z,3.25
2023-04-20T04:04:42.683Z,4.40
2023-04-20T04:09:46.612Z,2.53
2023-04-20T04:14:49.153Z,3.35
2023-04-20T04:19:52.015Z,2.92
2023-04-20T04:24:56.032Z,2.38
2023-04-20T04:29:59.007Z,3.72
2023-04-20T04:35:02.211Z,3.80
2023-04-20T04:40:08.826Z,3.78
2023-04-20T04:45:13.797Z,4.00
2023-04-20T04:50:18.586Z,3.88
2023-04-20T04:55:22.577Z,3.03
2023-04-20T05:00:26.288Z,4.47
2023-04-20T05:05:33.876Z,3.80
2023-04-20T05:10:39.189Z,3.17
2023-04-20T05:15:43.923Z,3.72
2023-04-20T05:25:51.017Z,3.10
2023-04-20T05:30:55.239Z,3.17
2023-04-20T05:35:58.550Z,2.78
2023-04-20T05:41:02.777Z,1.30
2023-04-20T05:46:06.517Z,3.47
2023-04-20T05:51:09.209Z,3.10
2023-04-20T05:56:13.824Z,3.47
2023-04-20T06:01:17.847Z,3.58
2023-04-20T06:06:20.832Z,2.05
2023-04-20T06:11:24.854Z,2.35
2023-04-20T06:16:28.225Z,1.98
2023-04-20T06:21:34.165Z,3.72
2023-04-20T06:26:38.146Z,3.88
2023-04-20T06:31:40.840Z,2.60
2023-04-20T06:36:44.604Z,3.65
2023-04-20T06:41:48.694Z,2.88
2023-04-20T06:51:53.833Z,2.45
2023-04-20T06:56:57.785Z,3.47
2023-04-20T07:02:00.603Z,4.65
2023-04-20T07:07:03.341Z,4.00
2023-04-20T07:12:07.531Z,3.88
2023-04-20T07:22:18.150Z,2.65
2023-04-20T07:27:22.109Z,4.25
2023-04-20T07:32:25.344Z,3.72
2023-04-20T07:37:28.820Z,2.47
2023-04-20T07:42:32.974Z,2.78
2023-04-20T07:52:38.569Z,3.28
2023-04-20T07:57:42.614Z,4.15
2023-04-20T08:02:45.358Z,2.70
2023-04-20T08:07:48.454Z,3.30
2023-04-20T08:12:53.497Z,2.42
2023-04-20T08:17:56.506Z,2.90
2023-04-20T08:22:59.505Z,3.20
2023-04-20T08:28:06.037Z,2.45
2023-04-20T08:33:09.691Z,3.90
2023-04-20T08:38:15.656Z,2.25
2023-04-20T08:43:22.384Z,3.25
2023-04-20T08:48:26.618Z,3.35
2023-04-20T08:53:29.226Z,2.10
2023-04-20T08:58:33.847Z,3.95
2023-04-20T09:03:37.383Z,3.15
2023-04-20T09:08:41.214Z,3.03
2023-04-20T09:13:45.473Z,3.83
2023-04-20T09:18:52.460Z,4.10
2023-04-20T09:23:57.476Z,3.92
2023-04-20T09:29:02.758Z,4.38
2023-04-20T09:34:05.804Z,4.38
2023-04-20T09:39:09.256Z,5.33
2023-04-20T09:44:13.705Z,4.25
2023-04-20T09:49:17.088Z,2.78
2023-04-20T09:54:20.655Z,3.70
2023-04-20T09:59:25.592Z,3.55
2023-04-20T10:04:28.506Z,3.30
2023-04-20T10:09:34.517Z,3.65
2023-04-20T10:14:38.998Z,2.72
2023-04-20T10:19:42.065Z,2.75
2023-04-20T10:24:44.975Z,2.17
2023-04-20T10:29:48.939Z,2.08
2023-04-20T10:39:54.469Z,3.55
2023-04-20T10:44:59.288Z,3.42
2023-04-20T10:55:06.892Z,3.50
2023-04-20T11:00:19.288Z,3.65
2023-04-20T11:05:23.409Z,3.40
2023-04-20T11:10:27.371Z,2.70
2023-04-20T11:15:33.826Z,3.65
2023-04-20T11:20:36.534Z,2.90
2023-04-20T11:25:49.302Z,4.10
2023-04-20T11:30:53.439Z,3.78
2023-04-20T11:41:04.361Z,3.58
2023-04-20T11:46:15.707Z,3.88
2023-04-20T11:51:18.383Z,4.00
2023-04-20T12:21:37.219Z,2.95
2023-04-20T12:26:40.642Z,2.47
2023-04-20T12:31:43.282Z,2.90
2023-04-20T12:36:48.308Z,3.50
2023-04-20T12:41:50.865Z,3.25
2023-04-20T12:46:53.959Z,3.15
2023-04-20T12:51:58.347Z,4.77
2023-04-20T12:57:02.537Z,3.35
2023-04-20T13:02:05.787Z,3.58
2023-04-20T13:07:09.872Z,3.78
2023-04-20T13:12:12.475Z,5.22
2023-04-20T13:17:15.100Z,4.20
2023-04-20T13:22:19.913Z,3.25
2023-04-20T13:27:22.495Z,4.88
2023-04-20T13:32:25.525Z,5.75
2023-04-20T13:37:29.897Z,5.60
2023-04-20T13:47:35.325Z,6.00
2023-04-20T13:52:39.459Z,4.05
2023-04-20T14:02:44.835Z,5.68
2023-04-20T14:07:48.833Z,5.45
2023-04-20T14:12:51.699Z,7.38
2023-04-20T14:17:54.282Z,7.75
2023-04-20T14:22:58.269Z,6.30
2023-04-20T14:28:00.923Z,6.47
2023-04-20T14:33:06.543Z,6.68
2023-04-20T14:38:11.203Z,6.70
2023-04-20T14:43:14.170Z,6.75
2023-04-20T14:48:18.147Z,6.68
2023-04-20T14:53:22.996Z,7.40
2023-04-20T14:58:25.725Z,6.32
2023-04-20T15:03:28.522Z,6.72
2023-04-20T15:08:33.712Z,7.25
2023-04-20T15:13:41.135Z,7.63
2023-04-20T16:49:48.042Z,7.95
2023-04-20T16:54:59.141Z,7.82
2023-04-20T17:00:01.788Z,8.15
2023-04-20T17:05:06.958Z,8.80
2023-04-20T17:10:09.930Z,7.47
2023-04-20T17:15:13.285Z,8.77
2023-04-20T17:20:17.914Z,8.80
2023-04-20T17:30:32.971Z,8.82
2023-04-20T17:35:38.106Z,9.43
2023-04-20T17:40:41.384Z,8.93
2023-04-20T17:45:44.869Z,6.97
2023-04-20T17:50:50.461Z,9.90
2023-04-20T17:55:53.065Z,8.63
2023-04-20T18:00:55.662Z,8.77
2023-04-20T18:05:59.585Z,8.63
2023-04-20T18:11:02.919Z,11.13
2023-04-20T18:16:07.476Z,8.35
2023-04-20T18:21:14.044Z,9.40
2023-04-20T18:26:18.339Z,10.10
2023-04-20T18:31:21.331Z,6.22
2023-04-20T18:36:25.353Z,8.55
2023-04-20T18:41:29.794Z,8.93
2023-04-20T18:46:35.109Z,9.32
2023-04-20T18:51:39.170Z,3.75
2023-04-20T18:56:41.868Z,7.75
2023-04-20T19:01:44.639Z,9.30
2023-04-20T19:06:48.866Z,6.10
2023-04-20T19:11:51.875Z,6.97
2023-04-20T19:16:55.065Z,6.05
2023-04-20T19:22:00.469Z,9.52
2023-04-20T19:27:04.606Z,8.93
2023-04-20T19:32:07.509Z,5.95
2023-04-20T19:37:11.925Z,8.63
2023-04-20T19:42:14.726Z,9.43
2023-04-20T19:47:17.243Z,9.68
2023-04-20T19:52:21.559Z,9.48
2023-04-20T19:57:24.954Z,7.97
2023-04-20T20:02:28.181Z,8.32
2023-04-20T20:07:32.209Z,7.88
2023-04-20T20:12:34.873Z,10.05
2023-04-20T20:17:37.643Z,7.47
2023-04-20T20:22:48.125Z,9.50
2023-04-20T20:27:51.055Z,8.52
2023-04-20T20:32:54.047Z,9.32
2023-04-20T20:37:58.080Z,9.57
2023-04-20T20:43:00.759Z,10.05
2023-04-20T20:48:03.729Z,9.50
2023-04-20T20:53:07.842Z,9.05
2023-04-20T20:58:10.604Z,8.95
2023-04-20T21:03:13.760Z,10.60
2023-04-20T21:08:18.355Z,9.53
2023-04-20T21:13:21.943Z,7.68
2023-04-20T21:18:24.751Z,9.18
2023-04-20T21:23:28.706Z,9.20
2023-04-20T21:28:31.380Z,10.07
2023-04-20T21:33:34.931Z,10.05
2023-04-20T21:38:39.288Z,8.40
2023-04-20T21:43:43.553Z,5.88
2023-04-20T21:48:55.058Z,9.05
2023-04-20T21:53:58.945Z,8.95
2023-04-20T21:59:01.485Z,10.32
2023-04-20T22:04:04.420Z,10.82
2023-04-20T22:09:08.523Z,10.07
2023-04-20T22:14:11.522Z,7.47
2023-04-20T22:19:14.102Z,9.02
2023-04-20T22:24:18.298Z,10.18
2023-04-20T22:34:23.940Z,9.35
2023-04-20T22:39:28.118Z,10.05
2023-04-20T23:40:12.963Z,8.55
2023-04-20T23:45:16.328Z,7.78
